Time;durP1;ratioP1;P1;durP2;ratioP2;P2;SDS_P1;SDS_P2;PMS_P1;PMS_P2;Temp;Humidity;BMP_temperature;BMP_pressure;BME280_temperature;BME280_humidity;BME280_pressure;Samples;Min_cycle;Max_cycle;Signal;HPM_P1;HPM_P2
2022/12/29 00:00:51;;;;;;;5.22;2.58;;;;;;;2.16;70.27;101837.31;457766;116;922509;-77
2022/12/29 00:01:55;;;;;;;2.56;1.86;;;;;;;2.13;70.40;101841.13;457789;116;930424;-78
2022/12/29 00:02:58;;;;;;;2.82;1.85;;;;;;;2.11;70.50;101835.02;457764;116;923094;-78
2022/12/29 00:04:02;;;;;;;4.03;2.56;;;;;;;2.10;70.41;101830.61;457818;114;923382;-77
2022/12/29 00:05:06;;;;;;;2.83;2.15;;;;;;;2.09;70.49;101828.94;457757;116;922514;-78
2022/12/29 00:06:09;;;;;;;2.72;2.42;;;;;;;2.09;70.63;101831.62;457724;116;930231;-79
2022/12/29 00:07:12;;;;;;;4.19;2.56;;;;;;;2.07;70.60;101836.27;457803;116;922482;-78
2022/12/29 00:08:15;;;;;;;3.47;2.17;;;;;;;2.05;70.75;101828.31;457823;116;922385;-78
2022/12/29 00:09:18;;;;;;;3.29;2.02;;;;;;;2.04;70.73;101828.47;457750;114;922703;-76
2022/12/29 00:10:21;;;;;;;3.69;2.36;;;;;;;2.04;70.87;101836.54;457728;116;922361;-78
2022/12/29 00:11:27;;;;;;;3.21;2.37;;;;;;;2.02;70.87;101835.80;457797;116;923491;-76
2022/12/29 00:15:36;;;;;;;3.21;2.14;;;;;;;2.01;70.93;101831.40;457602;116;922533;-77
2022/12/29 00:16:20;;;;;;;3.20;2.09;;;;;;;1.97;71.10;101835.34;456610;116;923003;-77
2022/12/29 00:17:23;;;;;;;3.43;2.24;;;;;;;1.94;71.21;101835.58;456802;116;922853;-77
2022/12/29 00:18:27;;;;;;;3.61;2.77;;;;;;;1.92;71.24;101835.73;456830;116;922424;-77
2022/12/29 00:36:01;;;;;;;3.27;2.60;;;;;;;1.78;71.88;101841.39;456575;116;922470;-78
2022/12/29 00:37:12;;;;;;;3.21;2.24;;;;;;;1.87;71.93;101837.95;477224;110;946894;-77
2022/12/29 00:45:03;;;;;;;3.13;2.22;;;;;;;1.74;72.04;101828.33;471494;112;922562;-76
2022/12/29 00:46:07;;;;;;;3.62;2.26;;;;;;;1.72;72.06;101831.14;471574;112;922582;-78
2022/12/29 00:47:10;;;;;;;2.97;2.21;;;;;;;1.72;72.03;101824.91;471648;112;922465;-77
2022/12/29 00:48:13;;;;;;;3.06;2.11;;;;;;;1.72;72.03;101831.14;471703;112;922580;-78
2022/12/29 00:49:31;;;;;;;5.27;2.33;;;;;;;1.72;72.10;101830.28;471596;112;922865;-76
2022/12/29 00:50:35;;;;;;;5.21;2.94;;;;;;;1.73;72.16;101829.30;471470;112;922642;-78
2022/12/29 00:51:38;;;;;;;3.87;2.36;;;;;;;1.73;72.17;101835.54;471638;112;922440;-78
2022/12/29 00:52:41;;;;;;;3.21;2.59;;;;;;;1.71;72.15;101832.11;471689;112;922586;-76
2022/12/29 00:53:44;;;;;;;3.11;1.84;;;;;;;1.72;72.14;101831.14;471665;112;922444;-77
2022/12/29 00:54:47;;;;;;;2.74;2.30;;;;;;;1.71;72.16;101832.11;471680;112;922509;-75
2022/12/29 00:55:50;;;;;;;3.92;2.29;;;;;;;1.71;72.06;101829.42;464743;112;922560;-78
2022/12/29 00:56:53;;;;;;;2.96;2.19;;;;;;;1.70;72.12;101835.81;463346;114;923837;-76
2022/12/29 00:57:58;;;;;;;3.99;2.26;;;;;;;1.70;72.05;101838.50;463363;114;923017;-77
2022/12/29 00:59:06;;;;;;;3.36;2.45;;;;;;;1.70;72.15;101834.95;463311;114;922987;-76
2022/12/29 01:00:10;;;;;;;4.17;2.36;;;;;;;1.69;72.10;101842.16;463197;114;922461;-78
2022/12/29 01:01:13;;;;;;;3.99;2.47;;;;;;;1.69;72.18;101839.47;463485;114;922474;-77
2022/12/29 01:02:17;;;;;;;2.96;2.01;;;;;;;1.70;72.13;101837.64;464529;114;922092;-75
2022/12/29 01:03:22;;;;;;;2.34;2.00;;;;;;;1.69;72.12;101842.16;463925;114;922079;-77
2022/12/29 01:04:25;;;;;;;2.91;2.04;;;;;;;1.70;72.20;101838.50;464121;114;922397;-77
2022/12/29 01:05:29;;;;;;;3.85;2.52;;;;;;;1.70;72.20;101849.25;464049;114;922492;-78
2022/12/29 01:06:33;;;;;;;3.67;2.61;;;;;;;1.70;72.13;101848.39;464393;114;922606;-76
2022/12/29 01:07:36;;;;;;;2.69;2.08;;;;;;;1.69;72.06;101852.91;463627;114;922570;-77
2022/12/29 01:08:39;;;;;;;4.13;2.92;;;;;;;1.69;72.20;101847.54;463399;114;922870;-78
2022/12/29 01:11:06;;;;;;;3.92;2.51;;;;;;;1.71;72.17;101844.73;463182;114;922587;-77
2022/12/29 01:12:10;;;;;;;4.18;2.44;;;;;;;1.71;72.25;101848.24;463188;114;922482;-77
2022/12/29 01:13:13;;;;;;;4.88;2.51;;;;;;;1.70;72.28;101853.77;463310;114;922578;-79
2022/12/29 01:14:17;;;;;;;3.04;2.27;;;;;;;1.71;72.33;101852.80;463413;114;922543;-77
2022/12/29 01:15:20;;;;;;;3.86;2.69;;;;;;;1.71;72.35;101850.11;463367;114;922537;-77
2022/12/29 01:16:24;;;;;;;3.46;2.37;;;;;;;1.72;72.35;101855.34;463291;114;922494;-77
2022/12/29 01:17:27;;;;;;;5.54;2.21;;;;;;;1.71;72.29;101853.63;463418;114;922609;-77
2022/12/29 01:18:31;;;;;;;4.69;2.78;;;;;;;1.72;72.27;101851.79;463320;114;922511;-77
2022/12/29 01:19:35;;;;;;;2.74;2.27;;;;;;;1.71;72.26;101860.86;454182;117;922600;-76
2022/12/29 01:20:38;;;;;;;3.83;2.64;;;;;;;1.71;72.15;101853.63;454709;114;922616;-78
2022/12/29 01:21:41;;;;;;;4.35;2.68;;;;;;;1.70;72.13;101853.77;463409;114;922554;-78
2022/12/29 01:22:44;;;;;;;3.64;2.54;;;;;;;1.68;72.26;101852.06;463480;114;922630;-78
2022/12/29 01:23:47;;;;;;;3.21;2.90;;;;;;;1.69;72.22;101852.91;463438;114;922421;-78
2022/12/29 01:24:51;;;;;;;3.43;2.42;;;;;;;1.69;72.28;101850.23;463424;114;922276;-77
2022/12/29 01:25:54;;;;;;;4.13;2.73;;;;;;;1.70;72.35;101853.77;463296;114;922415;-76
2022/12/29 01:26:57;;;;;;;3.30;2.48;;;;;;;1.70;72.35;101857.31;463421;114;922762;-79
2022/12/29 01:28:00;;;;;;;3.61;2.47;;;;;;;1.67;72.26;101852.17;464253;114;922633;-78
2022/12/29 01:29:03;;;;;;;2.84;2.49;;;;;;;1.66;72.23;101853.15;464028;114;922498;-77
2022/12/29 01:30:08;;;;;;;3.44;2.64;;;;;;;1.65;72.12;101856.84;464267;114;922376;-76
2022/12/29 01:31:12;;;;;;;3.19;2.22;;;;;;;1.62;72.20;101859.77;463700;114;930323;-78
2022/12/29 01:32:16;;;;;;;2.86;2.44;;;;;;;1.60;72.22;101857.19;463678;114;922513;-78
2022/12/29 01:33:20;;;;;;;3.34;2.44;;;;;;;1.55;72.13;101856.72;464245;114;922412;-77
2022/12/29 01:34:23;;;;;;;3.95;2.55;;;;;;;1.54;72.26;101864.94;463697;114;922476;-78
2022/12/29 01:35:27;;;;;;;3.42;2.42;;;;;;;1.50;72.30;101866.99;463419;114;922611;-77
2022/12/29 01:36:30;;;;;;;2.98;2.39;;;;;;;1.46;72.30;101859.31;463300;114;923160;-78
2022/12/29 01:37:34;;;;;;;4.68;2.92;;;;;;;1.44;72.36;101859.42;463256;114;922605;-78
2022/12/29 01:38:38;;;;;;;3.58;2.33;;;;;;;1.42;72.31;101863.23;463275;114;922836;-77
2022/12/29 01:39:42;;;;;;;4.03;3.00;;;;;;;1.39;72.36;101855.41;463320;114;922459;-77
2022/12/29 01:40:47;;;;;;;4.00;2.46;;;;;;;1.37;72.51;101862.76;463280;114;922605;-78
2022/12/29 01:41:50;;;;;;;6.45;2.87;;;;;;;1.35;72.55;101859.33;463138;114;930517;-77
2022/12/29 01:42:53;;;;;;;4.12;2.94;;;;;;;1.33;72.56;101866.65;463358;114;922476;-78
2022/12/29 01:44:00;;;;;;;10.28;2.92;;;;;;;1.31;72.59;101866.80;463347;114;922417;-77
2022/12/29 01:45:09;;;;;;;3.29;2.49;;;;;;;1.31;72.73;101865.94;463262;114;922908;-77
2022/12/29 01:46:33;;;;;;;3.90;2.83;;;;;;;1.29;72.77;101868.73;462812;114;922405;-78
2022/12/29 01:47:43;;;;;;;2.76;2.48;;;;;;;1.27;72.70;101865.31;463174;114;922816;-78
2022/12/29 01:48:49;;;;;;;3.21;2.64;;;;;;;1.24;72.83;101863.73;463072;114;923073;-78
2022/12/29 01:49:56;;;;;;;4.26;2.68;;;;;;;1.24;72.78;101866.43;463057;114;922463;-77
2022/12/29 01:50:59;;;;;;;3.92;2.61;;;;;;;1.22;72.90;101865.69;462868;114;922497;-78
2022/12/29 01:52:05;;;;;;;4.06;2.86;;;;;;;1.22;72.85;101864.83;463277;114;922904;-77
2022/12/29 01:53:28;;;;;;;5.93;2.81;;;;;;;1.20;72.98;101866.80;463091;114;922566;-78
2022/12/29 01:54:35;;;;;;;4.34;2.41;;;;;;;1.20;73.00;101874.86;463059;114;922520;-78
2022/12/29 01:55:44;;;;;;;3.16;2.37;;;;;;;1.20;72.97;101877.55;463117;112;922665;-77
2022/12/29 01:56:49;;;;;;;3.58;2.51;;;;;;;1.20;72.99;101872.17;462188;114;922494;-77
2022/12/29 01:57:54;;;;;;;3.75;2.52;;;;;;;1.20;73.09;101878.41;463116;114;922853;-77
2022/12/29 01:59:04;;;;;;;3.32;2.68;;;;;;;1.19;73.11;101873.14;462999;114;922697;-77
2022/12/29 02:00:11;;;;;;;3.42;2.55;;;;;;;1.20;73.14;101878.41;462534;114;923025;-76
2022/12/29 02:01:19;;;;;;;4.64;2.97;;;;;;;1.20;73.14;101881.09;463072;114;922553;-77
2022/12/29 02:02:24;;;;;;;5.13;3.34;;;;;;;1.18;73.12;101885.72;463019;114;922454;-79
2022/12/29 02:03:32;;;;;;;4.23;3.04;;;;;;;1.16;73.16;101876.92;463074;114;922337;-77
2022/12/29 02:04:38;;;;;;;3.59;2.42;;;;;;;1.15;73.10;101879.75;463069;114;923272;-77
2022/12/29 02:05:48;;;;;;;3.36;2.68;;;;;;;1.14;73.10;101878.89;463147;114;923101;-78
2022/12/29 02:06:55;;;;;;;3.57;2.56;;;;;;;1.14;73.21;101872.66;462214;114;922506;-77
2022/12/29 02:08:00;;;;;;;4.71;3.24;;;;;;;1.13;73.16;101882.55;463084;114;922476;-77
2022/12/29 02:09:03;;;;;;;3.86;2.49;;;;;;;1.14;73.25;101889.64;463070;112;922575;-77
2022/12/29 02:10:07;;;;;;;3.49;2.71;;;;;;;1.14;73.17;101884.27;463188;114;922476;-78
2022/12/29 02:11:11;;;;;;;4.65;2.86;;;;;;;1.14;73.18;101881.58;463121;114;930518;-77
2022/12/29 02:12:14;;;;;;;4.28;2.94;;;;;;;1.16;73.25;101884.13;463099;114;930590;-78
2022/12/29 02:13:19;;;;;;;3.83;2.39;;;;;;;1.15;73.16;101883.30;463096;114;922841;-77
2022/12/29 02:14:23;;;;;;;4.92;2.46;;;;;;;1.14;73.21;101888.78;463234;114;922421;-78
2022/12/29 02:15:35;;;;;;;3.27;2.62;;;;;;;1.14;73.08;101888.78;463275;114;922558;-77
2022/12/29 02:17:03;;;;;;;3.68;2.47;;;;;;;1.15;73.26;101883.30;463033;114;922593;-77
2022/12/29 02:18:28;;;;;;;4.58;2.82;;;;;;;1.16;73.16;101886.80;462346;114;922486;-77
2022/12/29 02:20:06;;;;;;;3.75;2.76;;;;;;;1.16;73.19;101884.13;462210;114;922950;-76
2022/12/29 02:21:13;;;;;;;4.59;2.93;;;;;;;1.16;73.35;101887.66;463036;114;922841;-78
2022/12/29 02:22:29;;;;;;;5.26;3.28;;;;;;;1.16;73.33;101894.86;463046;114;922816;-78
2022/12/29 02:23:57;;;;;;;3.53;2.53;;;;;;;1.16;73.43;101898.41;463088;114;922589;-78
2022/12/29 02:25:22;;;;;;;3.81;2.35;;;;;;;1.16;73.47;101895.72;463095;114;922591;-77
2022/12/29 02:26:32;;;;;;;3.91;2.59;;;;;;;1.18;73.40;101896.47;463096;114;922519;-77
2022/12/29 02:27:55;;;;;;;2.96;2.44;;;;;;;1.19;73.43;101905.38;461879;114;922596;-77
2022/12/29 02:29:23;;;;;;;3.64;3.03;;;;;;;1.18;73.47;101901.84;456357;116;922640;-77
2022/12/29 02:30:42;;;;;;;4.02;3.04;;;;;;;1.18;73.44;101900.98;458942;114;923294;-79
2022/12/29 02:32:08;;;;;;;4.00;3.13;;;;;;;1.17;73.33;101905.50;463055;114;922581;-77
2022/12/29 02:33:21;;;;;;;4.36;2.63;;;;;;;1.18;73.33;101909.04;462993;114;922588;-76
2022/12/29 02:34:42;;;;;;;3.56;2.87;;;;;;;1.17;73.45;101904.64;463020;114;922500;-77
2022/12/29 02:35:58;;;;;;;4.26;2.69;;;;;;;1.16;73.33;101903.78;441090;119;922823;-77
2022/12/29 02:37:26;;;;;;;3.71;2.71;;;;;;;1.15;73.29;101909.30;454939;114;922629;-75
2022/12/29 02:38:48;;;;;;;4.53;3.19;;;;;;;1.16;73.28;101910.98;463409;114;922581;-76
2022/12/29 02:39:55;;;;;;;4.05;2.73;;;;;;;1.14;73.27;101904.90;463609;114;922405;-76
2022/12/29 02:41:26;;;;;;;4.15;3.17;;;;;;;1.23;73.39;101909.53;477248;110;946874;-78
2022/12/29 02:42:51;;;;;;;4.23;3.39;;;;;;;1.10;73.42;101908.81;465584;113;922871;-79
2022/12/29 02:43:58;;;;;;;6.03;3.57;;;;;;;1.11;73.45;101921.23;463357;113;922437;-77
2022/12/29 02:45:05;;;;;;;4.44;3.64;;;;;;;1.10;73.39;101917.70;457375;115;922573;-76
2022/12/29 02:46:18;;;;;;;4.37;3.44;;;;;;;1.11;73.38;101922.09;457531;115;922602;-78
2022/12/29 02:47:25;;;;;;;4.49;3.27;;;;;;;1.12;73.47;101917.58;457483;116;922631;-78
2022/12/29 02:48:31;;;;;;;5.10;3.36;;;;;;;1.15;73.53;101923.59;457467;116;922508;-79
2022/12/29 02:49:38;;;;;;;5.52;3.56;;;;;;;1.17;73.39;101926.13;457455;114;922578;-77
2022/12/29 02:50:46;;;;;;;4.22;3.52;;;;;;;1.20;73.36;101920.53;457462;116;922503;-79
2022/12/29 02:51:59;;;;;;;5.09;3.31;;;;;;;1.22;73.42;101930.16;457449;115;922584;-77
2022/12/29 02:53:09;;;;;;;4.21;3.32;;;;;;;1.24;73.42;101928.22;452272;115;922543;-78
2022/12/29 02:55:33;;;;;;;3.98;3.52;;;;;;;1.29;73.30;101924.30;457435;116;922600;-78
2022/12/29 02:56:37;;;;;;;4.24;3.69;;;;;;;1.30;73.22;101932.25;457571;115;922540;-77
2022/12/29 02:57:40;;;;;;;5.13;3.57;;;;;;;1.31;73.27;101931.28;457486;115;930585;-78
2022/12/29 02:58:43;;;;;;;4.60;3.52;;;;;;;1.33;73.18;101931.13;457628;114;922514;-77
2022/12/29 02:59:50;;;;;;;4.22;3.45;;;;;;;1.34;73.28;101928.33;457649;116;922474;-79
2022/12/29 03:01:17;;;;;;;4.17;3.71;;;;;;;1.37;73.16;101930.80;452204;117;923513;-79
2022/12/29 03:02:50;;;;;;;6.59;3.46;;;;;;;1.39;73.12;101931.50;454275;116;922992;-78
2022/12/29 03:04:10;;;;;;;5.51;3.57;;;;;;;1.43;73.12;101932.13;457463;114;922528;-78
2022/12/29 03:05:20;;;;;;;4.03;3.54;;;;;;;1.44;73.20;101926.61;457371;116;922767;-77
2022/12/29 03:06:36;;;;;;;5.99;4.16;;;;;;;1.45;73.13;101936.39;457457;116;922505;-79
2022/12/29 03:08:17;;;;;;;6.02;4.08;;;;;;;1.47;73.08;101928.22;457295;115;923002;-78
2022/12/29 03:09:32;;;;;;;5.22;3.96;;;;;;;1.47;73.02;101930.91;457438;114;922494;-79
2022/12/29 03:10:44;;;;;;;5.55;4.24;;;;;;;1.47;73.11;101938.97;457216;115;922779;-77
2022/12/29 03:12:08;;;;;;;;;;;;;;;1.47;73.17;101929.08;461243;116;922613;-77
2022/12/29 03:16:26;;;;;;;;;;;;;;;1.43;73.26;101932.99;461246;116;922212;-77
2022/12/29 03:17:42;;;;;;;5.16;4.64;;;;;;;1.42;73.13;101930.42;457254;115;923191;-78
2022/12/29 03:18:52;;;;;;;6.04;5.28;;;;;;;1.38;73.16;101937.02;456588;114;922566;-77
2022/12/29 03:20:01;;;;;;;7.29;4.97;;;;;;;1.36;73.21;101930.91;457110;115;922633;-79
2022/12/29 03:21:12;;;;;;;6.41;4.83;;;;;;;1.35;73.19;101932.73;457429;116;922537;-78
2022/12/29 03:22:27;;;;;;;5.26;4.73;;;;;;;1.36;73.30;101933.59;457435;116;922481;-77
2022/12/29 03:23:37;;;;;;;5.64;5.08;;;;;;;1.37;73.19;101935.31;457360;115;922472;-78
2022/12/29 03:24:54;;;;;;;5.64;4.66;;;;;;;1.39;73.17;101930.65;457446;116;922521;-79
2022/12/29 03:26:01;;;;;;;5.51;4.65;;;;;;;1.40;73.10;101935.05;456794;115;922442;-77
2022/12/29 03:27:08;;;;;;;4.94;4.49;;;;;;;1.41;73.06;101932.25;457417;116;922958;-78
2022/12/29 03:28:19;;;;;;;5.91;4.91;;;;;;;1.43;73.10;101934.83;457307;115;922575;-79
2022/12/29 03:29:24;;;;;;;6.04;4.73;;;;;;;1.43;73.07;101935.69;457146;114;922506;-79
2022/12/29 03:30:29;;;;;;;5.98;5.37;;;;;;;1.45;72.96;101935.53;457478;115;922474;-78
2022/12/29 03:31:36;;;;;;;6.08;5.06;;;;;;;1.47;73.05;101931.76;450433;117;922726;-77
2022/12/29 03:32:46;;;;;;;6.56;5.42;;;;;;;1.49;72.87;101932.47;450961;116;922715;-79
2022/12/29 03:33:51;;;;;;;5.91;5.34;;;;;;;1.50;72.87;101936.02;457375;114;922411;-78
2022/12/29 03:34:55;;;;;;;5.47;4.85;;;;;;;1.50;72.84;101934.19;457481;115;922453;-76
2022/12/29 03:36:02;;;;;;;8.63;5.51;;;;;;;1.51;72.76;101943.97;457468;115;922463;-78
2022/12/29 03:37:12;;;;;;;6.85;5.54;;;;;;;1.52;72.79;101945.69;457415;116;922603;-78
2022/12/29 03:38:18;;;;;;;8.69;5.47;;;;;;;1.54;72.66;101948.26;457427;116;922828;-76
2022/12/29 03:39:23;;;;;;;6.57;5.14;;;;;;;1.55;72.73;101950.80;458310;113;922585;-78
2022/12/29 03:40:28;;;;;;;6.02;5.42;;;;;;;1.57;72.61;101945.30;458161;115;922603;-77
2022/12/29 03:41:33;;;;;;;7.74;5.76;;;;;;;1.58;72.65;101941.64;457468;115;922514;-78
2022/12/29 03:42:39;;;;;;;8.17;6.21;;;;;;;1.59;72.64;101943.36;457423;116;922976;-78
2022/12/29 03:43:43;;;;;;;6.42;5.57;;;;;;;1.59;72.53;101941.53;457391;114;922487;-78
2022/12/29 03:44:47;;;;;;;6.39;5.52;;;;;;;1.60;72.57;101947.73;457605;116;922483;-78
2022/12/29 03:45:50;;;;;;;8.16;6.06;;;;;;;1.60;72.50;101939.67;457524;116;922486;-77
2022/12/29 03:46:54;;;;;;;6.28;5.58;;;;;;;1.60;72.44;101945.05;457526;115;922460;-77
2022/12/29 03:47:57;;;;;;;7.45;5.73;;;;;;;1.59;72.42;101938.84;450630;117;922552;-78
2022/12/29 03:49:00;;;;;;;8.43;7.08;;;;;;;1.60;72.40;101945.05;450599;117;922634;-78
2022/12/29 03:50:03;;;;;;;6.99;6.28;;;;;;;1.59;72.27;101941.53;450873;116;922467;-77
2022/12/29 03:51:07;;;;;;;7.28;5.98;;;;;;;1.61;72.39;101944.07;450486;117;922857;-77
2022/12/29 03:52:10;;;;;;;9.10;6.99;;;;;;;1.60;72.27;101945.91;450783;116;922653;-77
2022/12/29 03:53:16;;;;;;;6.94;6.19;;;;;;;1.61;72.24;101946.77;457207;115;922523;-78
2022/12/29 03:54:19;;;;;;;6.59;5.63;;;;;;;1.62;72.39;101946.65;457450;114;922587;-77
2022/12/29 03:55:22;;;;;;;6.60;5.91;;;;;;;1.63;72.41;101951.05;457437;115;922585;-78
2022/12/29 03:56:25;;;;;;;7.14;6.44;;;;;;;1.64;72.41;101941.16;457478;116;922621;-78
2022/12/29 03:57:29;;;;;;;6.74;6.14;;;;;;;1.65;72.35;101945.56;457475;116;922525;-77
2022/12/29 03:58:34;;;;;;;6.53;5.47;;;;;;;1.65;72.31;101942.88;456869;115;922573;-77
2022/12/29 03:59:42;;;;;;;6.39;5.73;;;;;;;1.66;72.30;101948.09;457176;115;922492;-78
2022/12/29 04:00:46;;;;;;;6.57;5.96;;;;;;;1.67;72.31;101951.65;457450;115;922491;-80
2022/12/29 04:01:49;;;;;;;6.74;5.79;;;;;;;1.69;72.35;101949.70;457550;116;922797;-79
2022/12/29 04:02:53;;;;;;;6.23;5.66;;;;;;;1.70;72.27;101948.73;457452;116;922505;-77
2022/12/29 04:03:57;;;;;;;6.80;6.17;;;;;;;1.72;72.39;101949.44;458277;114;922004;-78
2022/12/29 04:05:00;;;;;;;5.96;5.41;;;;;;;1.74;72.27;101963.62;458804;112;921991;-79
2022/12/29 04:06:03;;;;;;;7.20;6.41;;;;;;;1.76;72.33;101960.82;458814;112;921998;-77
2022/12/29 04:07:08;;;;;;;6.33;5.69;;;;;;;1.77;72.30;101962.50;458089;112;921978;-78
2022/12/29 04:08:11;;;;;;;6.28;5.67;;;;;;;1.77;72.25;101959.81;458758;112;921888;-77
2022/12/29 04:09:15;;;;;;;6.68;6.02;;;;;;;1.77;72.21;101955.30;458817;112;922173;-77
2022/12/29 04:10:22;;;;;;;6.74;5.43;;;;;;;1.79;72.07;101956.03;458670;112;922028;-77
2022/12/29 04:11:26;;;;;;;6.32;5.72;;;;;;;1.78;72.14;101959.70;458582;115;922133;-76
2022/12/29 04:12:32;;;;;;;6.45;5.58;;;;;;;1.81;72.11;101963.98;458238;112;922129;-76
2022/12/29 04:13:35;;;;;;;6.74;5.99;;;;;;;1.83;72.25;101962.87;458774;112;922042;-77
2022/12/29 04:14:38;;;;;;;6.83;5.64;;;;;;;1.86;72.18;101964.47;458832;112;921842;-77
2022/12/29 04:15:43;;;;;;;6.07;5.51;;;;;;;1.89;72.14;101969.58;458726;112;922086;-78
2022/12/29 04:16:46;;;;;;;7.84;6.02;;;;;;;1.89;72.15;101967.75;458489;115;930436;-77
2022/12/29 04:17:50;;;;;;;6.31;5.59;;;;;;;1.91;71.99;101967.63;458682;113;930112;-78
2022/12/29 04:18:53;;;;;;;7.04;5.84;;;;;;;1.93;72.11;101958.44;458657;114;922045;-78
2022/12/29 04:20:59;;;;;;;6.20;5.60;;;;;;;1.95;72.04;101956.49;458746;115;922293;-77
2022/12/29 04:21:02;;;;;;;7.62;5.84;;;;;;;1.95;71.82;101961.02;456428;112;922180;-76
2022/12/29 04:22:06;;;;;;;6.66;6.03;;;;;;;1.94;71.70;101960.16;458616;116;922144;-77
2022/12/29 04:23:10;;;;;;;7.98;6.12;;;;;;;1.93;71.75;101958.44;458728;116;922169;-77
2022/12/29 04:24:14;;;;;;;6.32;5.63;;;;;;;1.93;71.78;101958.44;458639;114;929981;-78
2022/12/29 04:25:17;;;;;;;7.06;6.29;;;;;;;1.94;71.76;101959.30;458733;115;922187;-78
2022/12/29 04:26:21;;;;;;;7.60;6.23;;;;;;;1.94;71.79;101959.30;458677;115;930028;-77
2022/12/29 04:27:35;;;;;;;7.17;6.36;;;;;;;1.95;71.78;101959.18;457336;115;922563;-78
2022/12/29 04:28:40;;;;;;;6.86;5.97;;;;;;;1.97;71.79;101948.30;443257;119;922857;-77
2022/12/29 04:29:45;;;;;;;6.37;5.56;;;;;;;1.98;71.74;101956.26;449140;115;922432;-77
2022/12/29 04:30:57;;;;;;;7.45;6.16;;;;;;;2.01;71.86;101955.99;455995;115;922475;-77
2022/12/29 04:32:02;;;;;;;6.74;6.05;;;;;;;2.02;71.86;101959.54;457339;115;922460;-77
2022/12/29 04:33:06;;;;;;;7.37;6.58;;;;;;;2.04;71.83;101962.97;450511;117;923000;-78
2022/12/29 04:34:10;;;;;;;10.09;6.83;;;;;;;2.05;71.74;101962.82;450727;115;930634;-78
2022/12/29 04:35:13;;;;;;;7.16;6.52;;;;;;;2.06;71.79;101964.53;457519;116;930470;-77
2022/12/29 04:36:17;;;;;;;8.75;6.15;;;;;;;2.08;71.76;101962.59;450531;117;922669;-77
2022/12/29 04:37:21;;;;;;;8.70;6.36;;;;;;;2.08;71.58;101961.73;450928;116;922547;-77
2022/12/29 04:38:24;;;;;;;9.73;6.99;;;;;;;2.09;71.77;101971.52;457502;115;930400;-77
2022/12/29 04:39:28;;;;;;;7.27;6.57;;;;;;;2.10;71.75;101957.91;456820;114;922605;-77
2022/12/29 04:40:31;;;;;;;7.16;6.44;;;;;;;2.10;71.61;101955.22;449781;118;922421;-77
2022/12/29 04:41:34;;;;;;;7.69;6.87;;;;;;;2.11;71.52;101958.77;449750;117;922919;-76
2022/12/29 04:42:38;;;;;;;11.83;6.72;;;;;;;2.12;71.61;101957.80;442860;120;922658;-78
2022/12/29 04:43:42;;;;;;;8.25;7.36;;;;;;;2.11;71.46;101961.47;442851;117;922625;-77
2022/12/29 04:45:04;;;;;;;7.64;6.93;;;;;;;2.12;71.47;101959.63;444872;118;922648;-76
2022/12/29 04:46:09;;;;;;;9.42;7.73;;;;;;;2.12;71.51;101951.56;449202;117;922845;-78
2022/12/29 04:47:14;;;;;;;7.98;7.26;;;;;;;2.11;71.48;101958.77;448532;117;922499;-77
2022/12/29 04:48:19;;;;;;;8.01;7.18;;;;;;;2.12;71.50;101956.94;448434;117;922982;-77
2022/12/29 04:49:30;;;;;;;9.15;7.80;;;;;;;2.13;71.43;101950.58;451815;114;922973;-77
2022/12/29 04:50:39;;;;;;;8.32;7.52;;;;;;;2.15;71.47;101951.32;456395;115;922531;-79
2022/12/29 04:51:53;;;;;;;8.52;7.29;;;;;;;2.14;71.46;101955.84;457288;115;922454;-78
2022/12/29 04:52:56;;;;;;;8.29;7.34;;;;;;;2.16;71.44;101948.48;457544;115;922517;-76
2022/12/29 04:53:59;;;;;;;8.11;7.24;;;;;;;2.17;71.42;101952.89;457483;114;922455;-77
2022/12/29 04:55:04;;;;;;;8.76;7.84;;;;;;;2.17;71.43;101943.95;450410;117;922950;-77
2022/12/29 04:56:08;;;;;;;9.02;7.38;;;;;;;2.19;71.49;101955.46;450813;116;922562;-78
2022/12/29 04:57:12;;;;;;;8.05;7.33;;;;;;;2.20;71.46;101951.80;457372;116;930578;-78
2022/12/29 04:58:15;;;;;;;9.08;7.69;;;;;;;2.21;71.43;101945.41;457467;115;922719;-76
2022/12/29 04:59:20;;;;;;;9.03;7.88;;;;;;;2.22;71.35;101944.42;454231;114;922542;-79
2022/12/29 05:00:25;;;;;;;8.57;7.69;;;;;;;2.24;71.41;101947.86;449549;117;922507;-78
2022/12/29 05:01:28;;;;;;;8.91;8.01;;;;;;;2.25;71.25;101946.88;449633;117;922507;-77
2022/12/29 05:02:33;;;;;;;11.73;7.68;;;;;;;2.26;71.33;101945.91;449518;117;923113;-77
2022/12/29 05:03:37;;;;;;;10.79;7.86;;;;;;;2.27;71.26;101950.28;449588;118;922872;-77
2022/12/29 05:04:40;;;;;;;8.97;7.49;;;;;;;2.28;71.22;101954.69;450437;116;930576;-78
2022/12/29 05:05:43;;;;;;;7.91;7.15;;;;;;;2.27;71.10;101956.52;449662;118;922830;-77
2022/12/29 05:06:47;;;;;;;11.33;7.71;;;;;;;2.28;71.10;101949.30;449947;116;922196;-77
2022/12/29 05:07:51;;;;;;;8.68;7.86;;;;;;;2.28;71.11;101944.78;442652;120;922504;-76
2022/12/29 05:08:55;;;;;;;10.43;7.29;;;;;;;2.28;71.15;101947.47;443431;114;922629;-78
2022/12/29 05:09:58;;;;;;;7.94;6.74;;;;;;;2.29;71.01;101954.56;449697;118;922490;-80
2022/12/29 05:11:02;;;;;;;8.51;7.26;;;;;;;2.29;71.08;101945.63;449586;118;922663;-78
2022/12/29 05:12:06;;;;;;;8.36;7.32;;;;;;;2.29;71.02;101943.80;449690;118;922798;-77
2022/12/29 05:13:11;;;;;;;8.25;6.75;;;;;;;2.29;71.05;101946.49;449457;117;922474;-78
2022/12/29 05:14:15;;;;;;;9.20;6.79;;;;;;;2.30;71.04;101939.27;452218;116;922528;-78
2022/12/29 05:15:19;;;;;;;10.04;7.16;;;;;;;2.33;71.05;101944.39;457402;116;930455;-77
2022/12/29 05:16:22;;;;;;;9.51;6.81;;;;;;;2.33;71.10;101941.70;457349;116;930518;-77
2022/12/29 05:17:26;;;;;;;8.11;7.28;;;;;;;2.34;71.14;101938.03;457399;116;922472;-77
2022/12/29 05:18:29;;;;;;;9.35;7.26;;;;;;;2.36;71.12;101942.31;457447;116;922600;-77
2022/12/29 05:19:34;;;;;;;8.17;7.07;;;;;;;2.38;71.09;101940.33;452925;114;922922;-77
2022/12/29 05:20:37;;;;;;;8.79;7.62;;;;;;;2.39;71.17;101935.80;449605;118;922530;-78
2022/12/29 05:21:40;;;;;;;10.07;8.21;;;;;;;2.40;71.12;101942.90;449666;118;922420;-78
2022/12/29 05:22:44;;;;;;;10.05;7.85;;;;;;;2.41;71.00;101944.61;449657;118;922494;-78
2022/12/29 05:23:47;;;;;;;11.49;6.81;;;;;;;2.42;71.01;101943.64;449633;116;922812;-78
2022/12/29 05:24:50;;;;;;;9.13;7.44;;;;;;;2.41;71.05;101942.78;456920;114;922455;-77
2022/12/29 10:14:30;;;;;;;8.38;7.37;;;;;;;3.54;70.16;101922.16;504766;105;947229;-78
2022/12/29 10:16:07;;;;;;;8.19;7.18;;;;;;;3.50;69.82;101924.29;495390;107;922607;-77
2022/12/29 10:17:20;;;;;;;8.13;7.32;;;;;;;3.59;69.55;101920.77;495415;107;922292;-78
2022/12/29 10:18:41;;;;;;;9.90;7.26;;;;;;;3.62;69.36;101916.95;496071;107;922477;-78
2022/12/29 10:19:54;;;;;;;8.79;7.56;;;;;;;3.65;69.27;101916.66;496314;107;922241;-78
2022/12/29 10:21:07;;;;;;;12.22;7.58;;;;;;;3.67;69.05;101920.94;484625;107;922025;-79
2022/12/29 10:22:29;;;;;;;9.06;7.32;;;;;;;3.70;68.95;101919.80;496762;107;922005;-77
2022/12/29 10:23:44;;;;;;;8.41;7.32;;;;;;;3.72;69.03;101915.13;496146;106;922130;-78
2022/12/29 10:24:51;;;;;;;8.24;7.43;;;;;;;3.76;68.97;101919.25;495458;107;922354;-77
2022/12/29 10:25:56;;;;;;;8.24;7.37;;;;;;;3.81;69.00;101927.78;496230;107;921985;-76
2022/12/29 10:27:02;;;;;;;10.70;9.35;;;;;;;3.86;69.03;101922.00;495975;107;922384;-78
2022/12/29 10:28:25;;;;;;;10.83;9.71;;;;;;;3.91;68.95;101922.43;496189;107;922494;-77
2022/12/29 10:29:35;;;;;;;11.94;8.36;;;;;;;3.96;68.75;101921.02;496223;107;922418;-78
2022/12/29 10:30:40;;;;;;;11.59;8.05;;;;;;;4.00;68.44;101918.88;485293;109;922170;-78
2022/12/29 10:31:53;;;;;;;8.88;7.46;;;;;;;4.02;68.39;101920.47;486094;107;922401;-76
2022/12/29 10:32:58;;;;;;;10.83;7.44;;;;;;;4.04;68.20;101931.09;492197;107;922139;-77
2022/12/29 10:34:05;;;;;;;8.10;7.28;;;;;;;4.05;68.06;101925.57;495991;107;922202;-77